Time;durP1;ratioP1;P1;durP2;ratioP2;P2;SDS_P1;SDS_P2;PMS_P1;PMS_P2;Temp;Humidity;BMP_temperature;BMP_pressure;BME280_temperature;BME280_humidity;BME280_pressure;Samples;Min_cycle;Max_cycle;Signal;HPM_P1;HPM_P2
2022/09/24 00:00:56;;;;;;;6.07;4.53;;;12.50;99.90;;;;;;5055095;28;20773;-87
2022/09/24 00:03:23;;;;;;;6.23;3.93;;;12.60;99.90;;;;;;5055188;28;20214;-88
2022/09/24 00:05:50;;;;;;;5.57;4.73;;;12.70;99.90;;;;;;5054636;28;20431;-88
2022/09/24 00:08:17;;;;;;;4.67;4.27;;;12.60;99.90;;;;;;5055097;28;20413;-88
2022/09/24 00:10:44;;;;;;;4.90;3.80;;;12.60;99.90;;;;;;5054540;28;20514;-88
2022/09/24 00:13:13;;;;;;;6.30;5.03;;;12.50;99.90;;;;;;5036984;28;20429;-87
2022/09/24 00:15:42;;;;;;;5.37;4.20;;;12.40;99.90;;;;;;5037136;28;20448;-82
2022/09/24 00:18:10;;;;;;;4.03;3.27;;;12.40;99.90;;;;;;5054922;28;20879;-87
2022/09/24 00:20:37;;;;;;;5.47;4.97;;;12.40;99.90;;;;;;5054797;28;20461;-85
2022/09/24 00:23:03;;;;;;;5.90;3.47;;;12.40;99.90;;;;;;5054848;28;20421;-89
2022/09/24 00:28:14;;;;;;;4.30;3.93;;;12.30;99.90;;;;;;5054692;28;20463;-79
2022/09/24 00:30:41;;;;;;;4.83;3.73;;;12.30;99.90;;;;;;5054249;28;20460;-80
2022/09/24 00:33:07;;;;;;;4.67;3.63;;;12.30;99.90;;;;;;5054305;28;20826;-83
2022/09/24 00:35:33;;;;;;;6.33;4.20;;;12.30;99.90;;;;;;5054385;28;20424;-87
2022/09/24 00:37:59;;;;;;;4.40;3.43;;;12.40;99.90;;;;;;5054293;28;20423;-88
2022/09/24 00:40:29;;;;;;;7.53;5.10;;;12.40;99.90;;;;;;5054253;28;20419;-89
2022/09/24 00:42:57;;;;;;;5.87;4.00;;;12.40;99.90;;;;;;5054582;28;20166;-85
2022/09/24 00:45:24;;;;;;;4.80;4.07;;;12.40;99.90;;;;;;5054360;28;20435;-91
2022/09/24 00:47:50;;;;;;;6.10;4.50;;;12.40;99.90;;;;;;5054771;28;20777;-88
2022/09/24 00:50:24;;;;;;;6.70;5.40;;;12.40;99.90;;;;;;5054251;28;20461;-89
2022/09/24 00:52:59;;;;;;;4.37;3.50;;;12.50;99.90;;;;;;5054663;28;20466;-86
2022/09/24 00:55:26;;;;;;;4.90;3.40;;;12.50;99.90;;;;;;5054465;28;20444;-86
2022/09/24 00:57:55;;;;;;;5.07;3.63;;;12.50;99.90;;;;;;5036721;28;20436;-89
2022/09/24 01:00:21;;;;;;;5.03;4.53;;;12.50;99.90;;;;;;5036606;28;20807;-90
2022/09/24 01:03:01;;;;;;;5.17;3.73;;;12.40;99.90;;;;;;5053927;28;20497;-83
2022/09/24 01:05:27;;;;;;;4.47;3.27;;;12.40;99.90;;;;;;5055970;28;20181;-85
2022/09/24 01:07:53;;;;;;;6.07;4.47;;;12.30;99.90;;;;;;5066744;28;20424;-89
2022/09/24 01:10:47;;;;;;;6.27;4.70;;;12.30;99.90;;;;;;5063121;28;20465;-87
2022/09/24 01:13:54;;;;;;;5.30;3.67;;;12.30;99.90;;;;;;5064279;28;20425;-88
2022/09/24 01:16:45;;;;;;;5.03;3.83;;;12.20;99.90;;;;;;5061343;28;20407;-81
2022/09/24 01:19:41;;;;;;;6.00;3.00;;;12.20;99.90;;;;;;5065561;28;20404;-80
2022/09/24 01:22:36;;;;;;;5.33;4.20;;;12.20;99.90;;;;;;5060995;28;20482;-88
2022/09/24 01:25:31;;;;;;;4.70;4.30;;;12.20;99.90;;;;;;5062783;28;20417;-88
2022/09/24 01:28:44;;;;;;;4.67;4.23;;;12.20;99.90;;;;;;5060507;28;20919;-83
2022/09/24 01:31:18;;;;;;;5.87;4.73;;;12.20;99.90;;;;;;5024667;28;20481;-87
2022/09/24 01:33:48;;;;;;;5.50;4.10;;;12.30;99.90;;;;;;5052159;28;20468;-87
2022/09/24 01:36:15;;;;;;;5.87;4.07;;;12.30;99.90;;;;;;5052311;28;20404;-79
2022/09/24 01:38:43;;;;;;;5.50;4.20;;;12.20;99.90;;;;;;5063203;28;20421;-88
2022/09/24 01:41:11;;;;;;;7.83;4.37;;;12.20;99.90;;;;;;5063212;28;20539;-85
2022/09/24 01:43:38;;;;;;;7.60;4.27;;;12.10;99.90;;;;;;5060399;28;20428;-79
2022/09/24 01:46:05;;;;;;;7.67;4.50;;;12.00;99.90;;;;;;5062828;28;20421;-88
2022/09/24 01:48:31;;;;;;;5.23;4.30;;;12.00;99.90;;;;;;5063690;28;20823;-79
2022/09/24 01:51:04;;;;;;;6.90;4.73;;;12.00;99.90;;;;;;5061171;28;20997;-90
2022/09/24 01:53:38;;;;;;;7.60;4.10;;;12.00;99.90;;;;;;5042631;28;20993;-86
2022/09/24 01:56:12;;;;;;;5.03;4.57;;;12.00;99.90;;;;;;5045199;28;20936;-85
2022/09/24 01:58:54;;;;;;;3.63;3.03;;;12.10;99.90;;;;;;5048155;28;20429;-81
2022/09/24 02:01:33;;;;;;;4.73;4.30;;;12.10;99.90;;;;;;5048557;28;20856;-90
2022/09/24 02:04:06;;;;;;;4.80;4.40;;;12.00;99.90;;;;;;5050281;28;20413;-90
2022/09/24 02:06:38;;;;;;;5.17;4.27;;;11.90;99.90;;;;;;5040687;28;20420;-85
2022/09/24 02:09:04;;;;;;;5.37;4.43;;;11.90;99.90;;;;;;5052693;28;20518;-79
2022/09/24 02:11:32;;;;;;;5.70;4.60;;;11.90;99.90;;;;;;5052205;28;20944;-80
2022/09/24 02:14:09;;;;;;;6.30;4.87;;;11.90;99.90;;;;;;5052678;28;20163;-80
2022/09/24 02:16:37;;;;;;;8.30;5.03;;;11.90;99.90;;;;;;5052854;28;20425;-86
2022/09/24 02:19:09;;;;;;;7.90;5.67;;;11.90;99.90;;;;;;5052649;28;20408;-88
2022/09/24 02:21:39;;;;;;;5.00;4.50;;;11.80;99.90;;;;;;5052233;28;20430;-86
2022/09/24 02:24:14;;;;;;;6.40;5.80;;;11.80;99.90;;;;;;5052244;28;20780;-82
2022/09/24 02:26:39;;;;;;;6.87;4.27;;;11.80;99.90;;;;;;5051292;28;21015;-82
2022/09/24 02:29:05;;;;;;;6.60;4.50;;;11.80;99.90;;;;;;5053168;28;20412;-81
2022/09/24 02:31:36;;;;;;;5.07;4.10;;;11.80;99.90;;;;;;5056350;28;20206;-81
2022/09/24 02:37:10;;;;;;;4.77;4.37;;;11.80;99.90;;;;;;5047205;28;20424;-82
2022/09/24 02:39:36;;;;;;;8.17;5.83;;;11.80;99.90;;;;;;5056592;28;20411;-82
2022/09/24 02:42:04;;;;;;;4.30;3.90;;;11.80;99.90;;;;;;5055803;28;20954;-83
2022/09/24 02:44:35;;;;;;;5.70;4.60;;;11.70;99.90;;;;;;5056235;28;20253;-87
2022/09/24 02:47:00;;;;;;;6.40;5.00;;;11.80;99.90;;;;;;5056383;28;20412;-87
2022/09/24 02:49:26;;;;;;;4.97;4.40;;;11.80;99.90;;;;;;5056235;28;20731;-81
2022/09/24 02:51:51;;;;;;;4.43;4.03;;;11.80;99.90;;;;;;5056348;28;20619;-87
2022/09/24 02:54:17;;;;;;;5.37;4.50;;;11.70;99.90;;;;;;5073103;28;20330;-88
2022/09/24 02:56:42;;;;;;;4.53;4.13;;;11.80;99.90;;;;;;5075895;28;20188;-87
2022/09/24 02:59:08;;;;;;;7.90;4.67;;;11.70;99.90;;;;;;5076288;28;20173;-89
2022/09/24 03:01:34;;;;;;;7.67;5.07;;;11.80;99.90;;;;;;5058346;28;20175;-88
2022/09/24 03:04:00;;;;;;;6.20;4.80;;;11.80;99.90;;;;;;5076134;28;20168;-82
2022/09/24 03:06:26;;;;;;;6.10;4.37;;;11.70;99.90;;;;;;5076101;28;20181;-87
2022/09/24 03:08:52;;;;;;;7.00;4.30;;;11.70;99.90;;;;;;5076260;28;20410;-88
2022/09/24 03:11:20;;;;;;;6.07;4.53;;;11.80;99.90;;;;;;5075640;28;20472;-88
2022/09/24 03:13:46;;;;;;;5.80;5.30;;;11.80;99.90;;;;;;5076160;28;20990;-88
2022/09/24 03:16:11;;;;;;;5.10;4.60;;;11.80;99.90;;;;;;5075753;28;20419;-89
2022/09/24 03:18:37;;;;;;;9.03;5.20;;;11.80;99.90;;;;;;5075785;28;20174;-82
2022/09/24 03:21:06;;;;;;;9.53;5.53;;;11.90;99.90;;;;;;5076077;28;20644;-88
2022/09/24 03:23:32;;;;;;;6.00;5.40;;;11.90;99.90;;;;;;5076028;28;20593;-88
2022/09/24 03:25:57;;;;;;;6.70;5.57;;;11.90;99.90;;;;;;5075755;28;20413;-82
2022/09/24 03:28:23;;;;;;;7.43;5.77;;;11.90;99.90;;;;;;5057115;28;20768;-88
2022/09/24 03:31:01;;;;;;;6.50;5.20;;;11.90;99.90;;;;;;5075905;28;20200;-89
2022/09/24 03:33:35;;;;;;;6.30;5.70;;;11.90;99.90;;;;;;5074730;28;20198;-89
2022/09/24 03:36:19;;;;;;;6.03;5.43;;;11.90;99.90;;;;;;5075666;28;20464;-90
2022/09/24 03:38:47;;;;;;;5.00;4.30;;;11.90;99.90;;;;;;5076264;28;20834;-85
2022/09/24 03:41:13;;;;;;;5.67;5.13;;;11.90;99.90;;;;;;5075171;28;20918;-91
2022/09/24 03:43:39;;;;;;;8.40;5.57;;;11.90;99.90;;;;;;5075940;28;20411;-85
2022/09/24 03:46:09;;;;;;;4.77;4.27;;;11.90;99.90;;;;;;5075729;28;20928;-88
2022/09/24 03:48:37;;;;;;;4.70;3.80;;;11.90;99.90;;;;;;5076021;28;20173;-90
2022/09/24 03:51:11;;;;;;;6.20;4.40;;;11.80;99.90;;;;;;5057755;28;20482;-87
2022/09/24 03:53:37;;;;;;;6.27;4.67;;;11.80;99.90;;;;;;5057775;28;20459;-89
2022/09/24 03:56:05;;;;;;;6.17;4.20;;;11.80;99.90;;;;;;5075527;28;20463;-87
2022/09/24 03:58:37;;;;;;;6.00;4.17;;;11.80;99.90;;;;;;5075448;28;20406;-82
2022/09/24 04:01:03;;;;;;;6.30;4.47;;;11.90;99.90;;;;;;5075744;28;20467;-81
2022/09/24 04:03:29;;;;;;;6.00;4.87;;;11.90;99.90;;;;;;5059444;28;20938;-90
2022/09/24 04:05:55;;;;;;;4.93;4.33;;;11.80;99.90;;;;;;5058382;28;20420;-90
2022/09/24 04:08:22;;;;;;;4.67;3.70;;;11.90;99.90;;;;;;5076527;28;20752;-89
2022/09/24 04:10:49;;;;;;;5.87;4.93;;;11.90;99.90;;;;;;5075775;28;20200;-82
2022/09/24 04:13:15;;;;;;;6.70;3.93;;;11.80;99.90;;;;;;5075625;28;20421;-89
2022/09/24 04:15:41;;;;;;;7.30;4.23;;;11.80;99.90;;;;;;5075468;28;20499;-87
2022/09/24 04:18:07;;;;;;;4.70;3.70;;;11.80;99.90;;;;;;5075576;28;20822;-87
2022/09/24 04:20:33;;;;;;;5.07;4.00;;;11.80;99.90;;;;;;5075416;28;20254;-89
2022/09/24 04:22:59;;;;;;;7.23;5.60;;;11.90;99.90;;;;;;5075586;28;20161;-89
2022/09/24 04:25:27;;;;;;;6.30;5.67;;;11.90;99.90;;;;;;5075191;28;20408;-90
2022/09/24 04:28:01;;;;;;;6.27;5.10;;;11.90;99.90;;;;;;5057454;28;20206;-81
2022/09/24 04:30:28;;;;;;;5.20;3.80;;;12.00;99.90;;;;;;5075227;28;20924;-91
2022/09/24 04:32:53;;;;;;;5.10;4.10;;;12.00;99.90;;;;;;5057310;28;20463;-91
2022/09/24 04:35:21;;;;;;;5.10;4.60;;;12.00;99.90;;;;;;5075215;28;20439;-87
2022/09/24 04:37:47;;;;;;;7.53;5.40;;;11.90;99.90;;;;;;5075498;28;20176;-86
2022/09/24 04:40:13;;;;;;;6.70;5.00;;;12.00;99.90;;;;;;5075175;28;20443;-90
2022/09/24 04:42:40;;;;;;;8.20;5.70;;;11.90;99.90;;;;;;5075156;28;20181;-89
2022/09/24 04:45:09;;;;;;;6.50;5.10;;;11.90;99.90;;;;;;5075437;28;20441;-90
2022/09/24 04:47:36;;;;;;;7.07;5.23;;;12.00;99.90;;;;;;5057579;28;20431;-85
2022/09/24 04:50:03;;;;;;;5.60;5.00;;;12.00;99.90;;;;;;5074590;28;20412;-90
2022/09/24 04:52:31;;;;;;;5.73;5.07;;;12.00;99.90;;;;;;5073888;28;20415;-89
2022/09/24 04:54:58;;;;;;;6.70;4.60;;;11.90;99.90;;;;;;5074028;28;20423;-86
2022/09/24 04:57:24;;;;;;;6.50;4.90;;;11.90;99.90;;;;;;5074695;28;20422;-85
2022/09/24 04:59:50;;;;;;;5.67;5.17;;;11.90;99.90;;;;;;5074317;28;20410;-87
2022/09/24 05:02:15;;;;;;;6.70;5.27;;;11.90;99.90;;;;;;5074316;28;20195;-88
2022/09/24 05:04:42;;;;;;;7.47;6.53;;;11.90;99.90;;;;;;5074144;28;20168;-90
2022/09/24 05:07:08;;;;;;;6.97;6.27;;;11.90;99.90;;;;;;5074590;28;20440;-90
2022/09/24 05:09:34;;;;;;;9.13;5.93;;;11.90;99.90;;;;;;5056644;28;20472;-86
2022/09/24 05:12:00;;;;;;;8.40;6.97;;;11.90;99.90;;;;;;5074310;28;20471;-87
2022/09/24 05:14:25;;;;;;;8.57;6.10;;;11.90;99.90;;;;;;5056989;28;20206;-86
2022/09/24 05:16:51;;;;;;;6.70;6.07;;;11.90;99.90;;;;;;5074563;28;20416;-91
2022/09/24 05:19:17;;;;;;;6.40;5.80;;;11.90;99.90;;;;;;5074438;28;20170;-90
2022/09/24 05:21:43;;;;;;;6.90;5.70;;;12.00;99.90;;;;;;5074468;28;20531;-89
2022/09/24 05:24:08;;;;;;;8.33;6.17;;;11.90;99.90;;;;;;5074771;28;20295;-90
2022/09/24 05:29:18;;;;;;;5.97;5.30;;;12.00;99.90;;;;;;5074533;28;20194;-88
2022/09/24 05:31:43;;;;;;;6.80;5.30;;;12.00;99.90;;;;;;5074965;28;20558;-83
2022/09/24 05:34:09;;;;;;;7.50;6.57;;;12.00;99.90;;;;;;5074278;28;20442;-88
2022/09/24 05:36:35;;;;;;;9.20;5.73;;;11.90;99.90;;;;;;5056159;28;20187;-84
2022/09/24 05:39:00;;;;;;;7.57;6.77;;;11.90;99.90;;;;;;5073283;28;20157;-86
2022/09/24 05:41:26;;;;;;;9.23;5.77;;;11.90;99.90;;;;;;5072714;28;20230;-84
2022/09/24 05:43:51;;;;;;;6.90;5.03;;;11.90;99.90;;;;;;5073062;28;20176;-84
2022/09/24 05:46:17;;;;;;;7.07;5.60;;;11.90;99.90;;;;;;5073208;28;20628;-86
2022/09/24 05:48:43;;;;;;;8.20;6.67;;;11.90;99.90;;;;;;5055378;28;20271;-84
2022/09/24 05:51:08;;;;;;;9.83;6.57;;;11.90;99.90;;;;;;5073953;28;20213;-88
2022/09/24 05:53:34;;;;;;;7.80;6.57;;;11.90;99.90;;;;;;5055809;28;20225;-89
2022/09/24 05:56:00;;;;;;;7.03;5.87;;;11.90;99.90;;;;;;5055624;28;20179;-88
2022/09/24 05:58:25;;;;;;;8.17;6.77;;;11.90;99.90;;;;;;5056136;28;20177;-88
2022/09/24 06:00:51;;;;;;;11.30;7.77;;;11.90;99.90;;;;;;5074122;28;20257;-89
2022/09/24 06:03:18;;;;;;;8.53;6.80;;;12.00;99.90;;;;;;5074200;28;20526;-90
2022/09/24 06:05:45;;;;;;;7.63;6.87;;;12.00;99.90;;;;;;5073741;28;20165;-89
2022/09/24 06:08:11;;;;;;;10.13;7.80;;;12.00;99.90;;;;;;5074010;28;20422;-88
2022/09/24 06:10:37;;;;;;;8.60;6.43;;;12.00;99.90;;;;;;5074043;28;20518;-88
2022/09/24 06:13:03;;;;;;;10.73;8.57;;;12.00;99.90;;;;;;5073890;28;20431;-90
2022/09/24 06:15:29;;;;;;;10.73;7.90;;;12.10;99.90;;;;;;5056395;28;20423;-90
2022/09/24 06:17:55;;;;;;;10.57;7.93;;;12.10;99.90;;;;;;5056086;28;20169;-89
2022/09/24 06:20:21;;;;;;;9.47;8.07;;;12.10;99.90;;;;;;5073796;28;20437;-89
2022/09/24 06:22:47;;;;;;;9.10;8.20;;;12.10;99.90;;;;;;5073998;28;20179;-85
2022/09/24 06:25:13;;;;;;;10.33;9.10;;;12.00;99.90;;;;;;5073626;28;20494;-90
2022/09/24 06:27:41;;;;;;;10.97;9.37;;;12.00;99.90;;;;;;5073910;28;20175;-91
2022/09/24 06:30:07;;;;;;;12.77;9.33;;;12.00;99.90;;;;;;5055733;28;20169;-87
2022/09/24 06:32:33;;;;;;;11.57;9.23;;;12.00;99.90;;;;;;5073583;28;20422;-84
2022/09/24 06:34:58;;;;;;;11.90;10.57;;;12.00;99.90;;;;;;5073910;28;20912;-88
2022/09/24 06:37:24;;;;;;;14.00;10.70;;;12.00;99.90;;;;;;5073448;28;20179;-86
2022/09/24 06:39:49;;;;;;;13.10;10.40;;;12.00;99.90;;;;;;5073260;28;20173;-85
2022/09/24 06:42:15;;;;;;;13.90;9.63;;;12.00;99.90;;;;;;5073454;28;20165;-84
2022/09/24 06:44:41;;;;;;;11.83;9.43;;;12.00;99.90;;;;;;5073573;28;20227;-88
2022/09/24 06:47:06;;;;;;;13.30;10.10;;;12.00;99.90;;;;;;5073654;28;20171;-87
2022/09/24 06:49:32;;;;;;;12.03;10.67;;;12.10;99.90;;;;;;5073505;28;20409;-90
2022/09/24 06:51:57;;;;;;;12.10;10.77;;;12.10;99.90;;;;;;5073185;28;20804;-90
2022/09/24 06:54:23;;;;;;;14.63;10.67;;;12.00;99.90;;;;;;5073454;28;20222;-84
2022/09/24 06:56:51;;;;;;;19.13;12.63;;;12.10;99.90;;;;;;5073334;28;20528;-87
2022/09/24 06:59:17;;;;;;;14.97;12.80;;;12.10;99.90;;;;;;5072848;28;20410;-88
2022/09/24 07:01:42;;;;;;;17.80;13.93;;;12.10;99.90;;;;;;5072860;28;20427;-85
2022/09/24 07:04:08;;;;;;;19.00;14.20;;;12.10;99.90;;;;;;5072801;28;20178;-85
2022/09/24 07:09:18;;;;;;;19.07;13.40;;;12.00;99.90;;;;;;5072527;28;20184;-90
2022/09/24 07:11:45;;;;;;;20.93;14.67;;;12.00;99.90;;;;;;5054941;28;20482;-87
2022/09/24 07:14:12;;;;;;;15.13;13.07;;;12.00;99.90;;;;;;5072971;28;20180;-89
2022/09/24 07:16:37;;;;;;;17.10;12.63;;;12.10;99.90;;;;;;5074654;28;20456;-89
2022/09/24 07:19:06;;;;;;;18.23;13.67;;;12.00;99.90;;;;;;5076627;28;20501;-88
2022/09/24 07:21:31;;;;;;;18.00;11.70;;;12.10;99.90;;;;;;5058810;28;20713;-89
2022/09/24 07:23:57;;;;;;;13.83;12.33;;;12.10;99.90;;;;;;5076593;28;20509;-87
2022/09/24 07:26:22;;;;;;;14.37;11.30;;;12.10;99.90;;;;;;5059199;28;20173;-88
2022/09/24 07:28:48;;;;;;;17.87;14.20;;;12.10;99.90;;;;;;5076561;28;20204;-88
2022/09/24 07:31:13;;;;;;;12.43;10.73;;;12.10;99.90;;;;;;5076378;28;20207;-86
2022/09/24 07:33:39;;;;;;;12.27;10.60;;;12.10;99.90;;;;;;5076197;28;20244;-87
2022/09/24 07:36:06;;;;;;;12.67;9.83;;;12.20;99.90;;;;;;5075887;28;20207;-88
2022/09/24 07:38:35;;;;;;;15.43;11.57;;;12.10;99.90;;;;;;5058095;28;20174;-84
2022/09/24 07:41:02;;;;;;;12.10;9.47;;;12.10;99.90;;;;;;5057338;28;20483;-85
2022/09/24 07:43:28;;;;;;;14.63;9.77;;;12.10;99.90;;;;;;5057961;28;20422;-86
2022/09/24 07:45:54;;;;;;;11.50;9.60;;;12.00;99.90;;;;;;5079698;28;20410;-87
2022/09/24 07:48:20;;;;;;;12.13;9.00;;;12.00;99.90;;;;;;5066110;28;20186;-81
2022/09/24 07:50:46;;;;;;;9.97;8.57;;;12.10;99.90;;;;;;5062758;28;20462;-88
2022/09/24 07:53:12;;;;;;;12.73;9.60;;;12.00;99.90;;;;;;5080759;28;20450;-88
2022/09/24 07:55:39;;;;;;;10.93;8.50;;;12.10;99.90;;;;;;5062701;28;20644;-87
2022/09/24 07:58:14;;;;;;;14.77;10.40;;;12.10;99.90;;;;;;5078905;28;20844;-89
2022/09/24 08:00:40;;;;;;;11.03;8.60;;;12.10;99.90;;;;;;5075661;28;20472;-85
2022/09/24 08:03:06;;;;;;;12.53;8.83;;;12.10;99.90;;;;;;5075402;28;20406;-88
2022/09/24 08:05:32;;;;;;;11.13;9.00;;;12.10;99.90;;;;;;5075264;28;20176;-86
2022/09/24 08:07:58;;;;;;;13.17;10.23;;;12.10;99.90;;;;;;5075393;28;20404;-86
2022/09/24 08:10:25;;;;;;;15.87;10.10;;;12.10;99.90;;;;;;5074849;28;20177;-87
2022/09/24 08:12:52;;;;;;;13.57;9.43;;;12.20;99.90;;;;;;5057389;28;20427;-85
2022/09/24 08:15:18;;;;;;;11.67;9.90;;;12.20;99.90;;;;;;5074924;28;20410;-88
2022/09/24 08:17:43;;;;;;;9.57;7.87;;;12.20;99.90;;;;;;5074994;28;20422;-86
2022/09/24 08:20:12;;;;;;;11.27;9.80;;;12.10;99.90;;;;;;5071603;28;20419;-87
2022/09/24 08:22:38;;;;;;;15.30;10.23;;;12.20;99.90;;;;;;5063363;28;20204;-86
2022/09/24 08:25:04;;;;;;;16.43;9.80;;;12.20;99.90;;;;;;5055958;28;20445;-85
2022/09/24 08:27:31;;;;;;;13.93;10.40;;;12.20;99.90;;;;;;5074011;28;20648;-86
2022/09/24 08:29:59;;;;;;;15.50;9.90;;;12.20;99.90;;;;;;5074191;28;20419;-85
2022/09/24 08:32:25;;;;;;;16.70;10.63;;;12.20;99.90;;;;;;5074025;28;20462;-84
2022/09/24 08:34:50;;;;;;;15.17;12.23;;;12.10;99.90;;;;;;5074019;28;20420;-85
2022/09/24 08:37:16;;;;;;;15.33;11.47;;;12.20;99.90;;;;;;5073973;28;20220;-85
2022/09/24 08:39:41;;;;;;;14.07;11.27;;;12.20;99.90;;;;;;5073503;28;20223;-85
2022/09/24 08:42:20;;;;;;;15.97;10.80;;;12.20;99.90;;;;;;5073936;28;20207;-84
2022/09/24 08:47:55;;;;;;;14.50;10.60;;;12.30;99.90;;;;;;5073378;28;20452;-85
2022/09/24 08:50:28;;;;;;;164.53;85.23;;;12.20;99.90;;;;;;5073942;28;20438;-85
2022/09/24 08:53:30;;;;;;;23.83;17.03;;;12.30;99.90;;;;;;5073990;28;20882;-85
2022/09/24 08:55:59;;;;;;;16.40;12.93;;;12.30;99.90;;;;;;5061342;28;20415;-86
2022/09/24 08:58:35;;;;;;;15.67;11.20;;;12.30;99.90;;;;;;5055352;28;20512;-84
2022/09/24 09:01:04;;;;;;;16.13;11.67;;;12.20;99.90;;;;;;5073937;28;20416;-85
2022/09/24 09:03:39;;;;;;;16.33;11.70;;;12.30;99.90;;;;;;5073718;28;20403;-85
2022/09/24 09:06:42;;;;;;;15.90;11.57;;;12.30;99.90;;;;;;5055904;28;20927;-85
2022/09/24 09:09:18;;;;;;;18.67;14.90;;;12.40;99.90;;;;;;5073341;28;20443;-85
2022/09/24 09:11:51;;;;;;;18.83;13.00;;;12.40;99.90;;;;;;5073560;28;20481;-85
2022/09/24 09:14:24;;;;;;;16.00;13.50;;;12.30;99.90;;;;;;5073549;28;20984;-86
2022/09/24 09:16:57;;;;;;;15.47;12.87;;;12.40;99.90;;;;;;5073592;28;20502;-85
2022/09/24 09:19:28;;;;;;;16.60;13.57;;;12.40;99.90;;;;;;5073600;28;20404;-85
2022/09/24 09:22:04;;;;;;;18.30;14.03;;;12.50;99.90;;;;;;5073516;28;20417;-86
2022/09/24 09:24:47;;;;;;;16.20;13.10;;;12.50;99.90;;;;;;5073221;28;20468;-85
2022/09/24 09:27:15;;;;;;;17.13;12.70;;;12.60;99.90;;;;;;5055518;28;20426;-83
2022/09/24 09:29:43;;;;;;;16.20;11.87;;;12.60;99.90;;;;;;5073257;28;20400;-87
2022/09/24 09:32:27;;;;;;;17.00;13.83;;;12.70;99.90;;;;;;5060315;28;20475;-85
2022/09/24 09:35:02;;;;;;;16.60;13.80;;;12.70;99.90;;;;;;5053094;28;20414;-86
2022/09/24 09:38:05;;;;;;;19.60;14.67;;;12.80;99.90;;;;;;5055194;28;20434;-87
2022/09/24 09:40:42;;;;;;;18.13;15.20;;;12.80;99.90;;;;;;5033084;28;20428;-85
2022/09/24 09:43:10;;;;;;;23.17;15.47;;;12.70;99.90;;;;;;5052486;28;20407;-86
2022/09/24 09:45:58;;;;;;;20.27;13.93;;;12.80;99.90;;;;;;5052424;28;20404;-86
2022/09/24 09:48:27;;;;;;;19.37;14.77;;;12.80;99.90;;;;;;5052471;28;20440;-85
2022/09/24 09:50:58;;;;;;;18.77;14.77;;;12.80;99.90;;;;;;5052498;28;20513;-86
2022/09/24 09:53:30;;;;;;;20.77;14.00;;;12.80;99.90;;;;;;5034431;28;20473;-85
2022/09/24 09:55:58;;;;;;;24.47;18.17;;;12.80;99.90;;;;;;5052213;28;20767;-87
2022/09/24 09:58:42;;;;;;;20.67;13.17;;;12.90;99.90;;;;;;5036333;28;20469;-85
2022/09/24 10:01:17;;;;;;;23.53;15.57;;;12.90;99.90;;;;;;5052577;28;20745;-85
2022/09/24 10:03:43;;;;;;;23.20;15.40;;;12.90;99.90;;;;;;5052555;28;20465;-85
2022/09/24 10:06:14;;;;;;;20.77;14.67;;;12.80;99.90;;;;;;5052393;28;20515;-85
2022/09/24 10:08:39;;;;;;;22.77;14.97;;;12.90;99.90;;;;;;5052341;28;20173;-85
2022/09/24 10:11:06;;;;;;;22.57;14.63;;;12.90;99.90;;;;;;5052339;28;20477;-86
2022/09/24 10:13:33;;;;;;;21.70;14.07;;;12.90;99.90;;;;;;5052420;28;20175;-86
2022/09/24 10:16:04;;;;;;;23.20;16.77;;;13.10;99.90;;;;;;5052295;28;20408;-85
2022/09/24 10:18:29;;;;;;;20.40;15.17;;;13.00;99.90;;;;;;5052295;28;20898;-86
2022/09/24 10:20:56;;;;;;;17.63;12.67;;;13.00;99.90;;;;;;5052285;28;20414;-86
2022/09/24 10:23:38;;;;;;;20.93;13.83;;;13.00;99.90;;;;;;5052279;28;20175;-85
2022/09/24 10:26:05;;;;;;;21.77;15.80;;;13.10;99.90;;;;;;5052496;28;20419;-85
2022/09/24 10:31:28;;;;;;;16.57;13.97;;;13.20;99.90;;;;;;5052402;28;20477;-86
2022/09/24 10:33:56;;;;;;;20.20;12.87;;;13.20;99.90;;;;;;5052180;28;20431;-86
2022/09/24 10:36:31;;;;;;;17.97;12.77;;;13.20;99.90;;;;;;5052082;28;20417;-85
2022/09/24 10:39:14;;;;;;;16.90;14.13;;;13.10;99.90;;;;;;5051960;28;20933;-84
2022/09/24 10:41:51;;;;;;;21.53;14.00;;;13.10;99.90;;;;;;5052099;28;20408;-85
2022/09/24 10:44:19;;;;;;;18.93;13.47;;;13.10;99.90;;;;;;5052196;28;20872;-85
2022/09/24 10:47:03;;;;;;;18.33;15.17;;;13.10;99.90;;;;;;5052141;28;20469;-85
2022/09/24 10:50:06;;;;;;;18.30;13.97;;;13.10;99.90;;;;;;5051865;28;20429;-85
2022/09/24 10:52:43;;;;;;;19.33;14.20;;;13.20;99.90;;;;;;5055784;28;20547;-85
2022/09/24 10:55:47;;;;;;;19.10;11.53;;;13.20;99.90;;;;;;5055769;28;20461;-85
2022/09/24 10:58:32;;;;;;;19.63;13.17;;;13.20;99.90;;;;;;5055858;28;20427;-86
2022/09/24 11:01:14;;;;;;;21.93;13.30;;;13.20;99.90;;;;;;5055799;28;20411;-85
2022/09/24 11:04:05;;;;;;;18.90;12.77;;;13.20;99.90;;;;;;5038038;28;20416;-86
2022/09/24 11:06:56;;;;;;;23.97;13.40;;;13.10;99.90;;;;;;5055805;28;20481;-86
2022/09/24 11:09:49;;;;;;;17.40;13.40;;;13.00;99.90;;;;;;5037394;28;20893;-86
2022/09/24 11:12:27;;;;;;;18.30;13.33;;;13.00;99.90;;;;;;5055577;28;20471;-87
2022/09/24 11:15:04;;;;;;;16.63;13.20;;;13.00;99.90;;;;;;5056096;28;20421;-86
2022/09/24 11:17:53;;;;;;;20.57;13.67;;;13.00;99.90;;;;;;5056006;28;20432;-86
2022/09/24 11:20:34;;;;;;;18.33;11.87;;;13.00;99.90;;;;;;5056392;28;20945;-88
2022/09/24 11:23:26;;;;;;;19.23;12.33;;;13.10;99.90;;;;;;5038771;28;20416;-88
2022/09/24 11:26:19;;;;;;;19.70;13.80;;;13.00;99.90;;;;;;5033367;28;20834;-89
2022/09/24 11:29:06;;;;;;;17.63;13.00;;;13.00;99.90;;;;;;5057605;28;20472;-87
2022/09/24 11:31:45;;;;;;;15.23;12.40;;;13.10;99.90;;;;;;5057187;28;20825;-88
2022/09/24 11:34:22;;;;;;;13.67;11.10;;;13.00;99.90;;;;;;5056605;28;20407;-89
2022/09/24 11:37:06;;;;;;;17.00;10.33;;;13.00;99.90;;;;;;5056647;28;20430;-84
2022/09/24 11:39:50;;;;;;;16.57;11.53;;;13.20;99.90;;;;;;5056257;28;20423;-86
2022/09/24 11:42:35;;;;;;;16.40;12.37;;;13.30;99.90;;;;;;5056358;28;20655;-89
2022/09/24 11:45:16;;;;;;;16.93;12.10;;;13.20;99.90;;;;;;5056579;28;20488;-88
2022/09/24 11:48:06;;;;;;;17.37;13.63;;;13.30;99.90;;;;;;5039058;28;20460;-88
2022/09/24 11:50:58;;;;;;;17.63;12.73;;;13.30;99.90;;;;;;5067381;28;20434;-90
2022/09/24 11:53:37;;;;;;;17.93;14.30;;;13.30;99.90;;;;;;5073715;28;20469;-90
2022/09/24 11:56:21;;;;;;;18.40;13.27;;;13.30;99.90;;;;;;5043116;28;20424;-89
2022/09/24 11:58:52;;;;;;;19.50;13.73;;;13.20;99.90;;;;;;5056485;28;20797;-89
2022/09/24 12:01:26;;;;;;;20.20;14.57;;;13.20;99.90;;;;;;5056576;28;20721;-91
2022/09/24 12:04:09;;;;;;;19.33;14.80;;;13.10;99.90;;;;;;5055971;28;20446;-90
2022/09/24 12:06:41;;;;;;;19.23;12.90;;;13.10;99.90;;;;;;5056348;28;20427;-89
2022/09/24 12:09:24;;;;;;;19.67;14.27;;;13.20;99.90;;;;;;5055872;28;20445;-84
2022/09/24 12:12:14;;;;;;;19.30;13.97;;;13.20;99.90;;;;;;5055930;28;20455;-90
2022/09/24 12:14:48;;;;;;;19.13;13.83;;;13.20;99.90;;;;;;5056006;28;20396;-91
2022/09/24 12:17:24;;;;;;;16.67;13.00;;;13.10;99.90;;;;;;5056254;28;20412;-90
2022/09/24 12:19:57;;;;;;;46.03;27.73;;;13.10;99.90;;;;;;5038071;28;20507;-90
2022/09/24 12:22:24;;;;;;;18.60;13.00;;;13.20;99.90;;;;;;5056350;28;20764;-86
2022/09/24 12:24:57;;;;;;;23.07;15.07;;;13.20;99.90;;;;;;5062515;28;20433;-86
2022/09/24 12:27:33;;;;;;;18.80;13.50;;;13.30;99.90;;;;;;5073954;28;20494;-84
2022/09/24 12:33:53;;;;;;;15.70;11.93;;;13.30;99.90;;;;;;5055507;28;20796;-83
2022/09/24 12:36:34;;;;;;;14.87;12.77;;;13.30;99.90;;;;;;5052350;28;20790;-86
2022/09/24 12:39:11;;;;;;;17.67;13.17;;;13.40;99.90;;;;;;5073477;28;20764;-87
2022/09/24 12:41:47;;;;;;;20.40;14.17;;;13.40;99.90;;;;;;5073854;28;21011;-84
2022/09/24 12:44:28;;;;;;;22.37;15.47;;;13.50;99.90;;;;;;5055628;28;20450;-84
2022/09/24 12:46:58;;;;;;;15.80;13.33;;;13.40;99.90;;;;;;5073833;28;20458;-83
2022/09/24 12:49:24;;;;;;;18.63;14.20;;;13.40;99.90;;;;;;5073690;28;20496;-83
2022/09/24 12:52:01;;;;;;;21.57;14.07;;;13.50;99.90;;;;;;5073136;28;20495;-83
2022/09/24 12:54:35;;;;;;;21.40;14.60;;;13.50;99.90;;;;;;5072909;28;20223;-86
2022/09/24 12:57:15;;;;;;;18.33;13.53;;;13.50;99.90;;;;;;5055491;28;20766;-83
2022/09/24 12:59:56;;;;;;;16.90;12.70;;;13.60;99.90;;;;;;5072732;28;20426;-88
2022/09/24 13:02:24;;;;;;;17.00;14.37;;;13.60;99.90;;;;;;5072137;28;20432;-84
2022/09/24 13:05:01;;;;;;;15.90;12.60;;;13.60;99.90;;;;;;5073156;28;20550;-84
2022/09/24 13:07:35;;;;;;;17.20;13.00;;;13.70;99.90;;;;;;5073194;28;20441;-88
2022/09/24 13:10:11;;;;;;;16.97;12.70;;;13.60;99.90;;;;;;5055722;28;20424;-84
2022/09/24 13:12:36;;;;;;;15.90;12.80;;;13.60;99.90;;;;;;5055450;28;20489;-87
2022/09/24 13:15:09;;;;;;;14.83;12.30;;;13.70;99.90;;;;;;5053492;28;20424;-87
2022/09/24 13:17:37;;;;;;;17.73;13.50;;;13.60;99.90;;;;;;5073099;28;20549;-86
2022/09/24 13:20:07;;;;;;;13.17;10.83;;;13.70;99.90;;;;;;5073610;28;20555;-83